Kano Mallam Aminu Intl Airport - Kano, Nigeria - ICAO: DNKN - IATA: KAN

 
  Longest Runway: 10,831 feet   Approach Types:    Airport of Entry (AOE): Yes

Current Weather (METAR)

2020/12/01 09:00 DNKN 010900Z 07010KT CAVOK 28/01 Q1018 NOSIG

Kano, Nigeria (DNKN) 12-03N 008-32E 481M Dec 01, 2020 - 04:00 AM EST / 2020.12.01 0900 UTC Wind: from the ENE (070 degrees) at 12 MPH (10 KT):0 Visibility: greater than 7 mile(s):0 Temperature: 82 F (28 C) Dew Point: 33 F (1 C) Relative Humidity: 17% Pressure (altimeter): 30.06 in. Hg (1018 hPa) ob: DNKN 010900Z 07010KT CAVOK 28/01 Q1018 NOSIG cycle: 9

Terminal Forecast (TAF)

2020/12/01 06:21 TAF DNKN 010500Z 0106/0212 04010KT CAVOK